sensor_id;sensor_type;location;lat;lon;timestamp;P1;durP1;ratioP1;P2;durP2;ratioP2
22113;SDS011;11223;49.968;9.062;2023-03-31T00:00:41;1.83;;;1.30;;
22113;SDS011;11223;49.968;9.062;2023-03-31T00:03:07;1.95;;;1.45;;
22113;SDS011;11223;49.968;9.062;2023-03-31T00:05:46;3.08;;;1.50;;
22113;SDS011;11223;49.968;9.062;2023-03-31T00:08:12;2.60;;;1.42;;
22113;SDS011;11223;49.968;9.062;2023-03-31T00:10:42;1.80;;;1.70;;
22113;SDS011;11223;49.968;9.062;2023-03-31T00:13:10;2.00;;;1.42;;
22113;SDS011;11223;49.968;9.062;2023-03-31T00:15:36;2.83;;;1.40;;
22113;SDS011;11223;49.968;9.062;2023-03-31T00:18:01;2.77;;;1.90;;
22113;SDS011;11223;49.968;9.062;2023-03-31T00:20:28;2.97;;;1.70;;
22113;SDS011;11223;49.968;9.062;2023-03-31T00:22:53;3.13;;;2.00;;
22113;SDS011;11223;49.968;9.062;2023-03-31T00:25:22;2.78;;;1.65;;
22113;SDS011;11223;49.968;9.062;2023-03-31T00:27:47;2.70;;;2.50;;
22113;SDS011;11223;49.968;9.062;2023-03-31T00:30:14;2.85;;;1.73;;
22113;SDS011;11223;49.968;9.062;2023-03-31T00:32:40;2.03;;;1.35;;
22113;SDS011;11223;49.968;9.062;2023-03-31T00:35:06;3.23;;;1.63;;
22113;SDS011;11223;49.968;9.062;2023-03-31T00:37:32;2.70;;;1.15;;
22113;SDS011;11223;49.968;9.062;2023-03-31T00:39:58;2.72;;;1.65;;
22113;SDS011;11223;49.968;9.062;2023-03-31T00:42:24;2.05;;;1.63;;
22113;SDS011;11223;49.968;9.062;2023-03-31T00:47:38;1.58;;;1.20;;
22113;SDS011;11223;49.968;9.062;2023-03-31T00:50:13;2.78;;;1.52;;
22113;SDS011;11223;49.968;9.062;2023-03-31T00:52:42;3.85;;;2.17;;
22113;SDS011;11223;49.968;9.062;2023-03-31T00:55:10;2.65;;;1.42;;
22113;SDS011;11223;49.968;9.062;2023-03-31T00:57:42;2.25;;;1.38;;
22113;SDS011;11223;49.968;9.062;2023-03-31T01:00:11;3.20;;;1.50;;
22113;SDS011;11223;49.968;9.062;2023-03-31T01:02:43;3.60;;;1.83;;
22113;SDS011;11223;49.968;9.062;2023-03-31T01:05:17;1.63;;;1.52;;
22113;SDS011;11223;49.968;9.062;2023-03-31T01:07:46;2.60;;;1.70;;
22113;SDS011;11223;49.968;9.062;2023-03-31T01:10:13;2.10;;;1.50;;
22113;SDS011;11223;49.968;9.062;2023-03-31T01:12:40;3.05;;;2.20;;
22113;SDS011;11223;49.968;9.062;2023-03-31T01:15:08;4.72;;;2.00;;
22113;SDS011;11223;49.968;9.062;2023-03-31T01:17:34;2.17;;;1.38;;
22113;SDS011;11223;49.968;9.062;2023-03-31T01:28:12;2.25;;;1.50;;
22113;SDS011;11223;49.968;9.062;2023-03-31T01:36:34;4.05;;;1.38;;
22113;SDS011;11223;49.968;9.062;2023-03-31T01:45:53;3.88;;;2.00;;
22113;SDS011;11223;49.968;9.062;2023-03-31T01:48:01;2.55;;;1.38;;
22113;SDS011;11223;49.968;9.062;2023-03-31T01:50:47;2.20;;;1.60;;
22113;SDS011;11223;49.968;9.062;2023-03-31T01:53:23;1.75;;;1.15;;
22113;SDS011;11223;49.968;9.062;2023-03-31T01:56:06;4.30;;;1.60;;
22113;SDS011;11223;49.968;9.062;2023-03-31T01:58:54;2.83;;;1.40;;
22113;SDS011;11223;49.968;9.062;2023-03-31T02:01:30;2.60;;;1.35;;
22113;SDS011;11223;49.968;9.062;2023-03-31T02:04:07;2.97;;;1.50;;
22113;SDS011;11223;49.968;9.062;2023-03-31T02:06:42;2.35;;;1.35;;
22113;SDS011;11223;49.968;9.062;2023-03-31T02:09:15;3.22;;;1.60;;
22113;SDS011;11223;49.968;9.062;2023-03-31T02:11:43;3.97;;;1.30;;
22113;SDS011;11223;49.968;9.062;2023-03-31T02:14:12;3.47;;;1.90;;
22113;SDS011;11223;49.968;9.062;2023-03-31T02:16:42;3.28;;;1.60;;
22113;SDS011;11223;49.968;9.062;2023-03-31T02:19:11;5.15;;;1.40;;
22113;SDS011;11223;49.968;9.062;2023-03-31T02:21:42;5.10;;;1.67;;
22113;SDS011;11223;49.968;9.062;2023-03-31T02:24:12;2.72;;;1.52;;
22113;SDS011;11223;49.968;9.062;2023-03-31T02:26:44;2.20;;;1.20;;
22113;SDS011;11223;49.968;9.062;2023-03-31T02:29:22;2.97;;;1.58;;
22113;SDS011;11223;49.968;9.062;2023-03-31T02:32:30;2.43;;;1.97;;
22113;SDS011;11223;49.968;9.062;2023-03-31T02:34:42;4.10;;;2.05;;
22113;SDS011;11223;49.968;9.062;2023-03-31T02:37:07;1.20;;;1.00;;
22113;SDS011;11223;49.968;9.062;2023-03-31T02:39:33;2.53;;;1.60;;
22113;SDS011;11223;49.968;9.062;2023-03-31T02:42:01;1.48;;;1.38;;
22113;SDS011;11223;49.968;9.062;2023-03-31T02:44:32;3.13;;;1.25;;
22113;SDS011;11223;49.968;9.062;2023-03-31T02:47:03;1.90;;;1.10;;
22113;SDS011;11223;49.968;9.062;2023-03-31T02:49:32;2.50;;;1.30;;
22113;SDS011;11223;49.968;9.062;2023-03-31T03:08:49;4.40;;;1.38;;
22113;SDS011;11223;49.968;9.062;2023-03-31T03:11:41;2.50;;;1.40;;
22113;SDS011;11223;49.968;9.062;2023-03-31T03:17:23;2.45;;;1.67;;
22113;SDS011;11223;49.968;9.062;2023-03-31T03:19:51;3.97;;;1.80;;
22113;SDS011;11223;49.968;9.062;2023-03-31T03:22:19;4.18;;;2.20;;
22113;SDS011;11223;49.968;9.062;2023-03-31T03:24:45;1.70;;;1.60;;
22113;SDS011;11223;49.968;9.062;2023-03-31T03:27:11;1.50;;;1.40;;
22113;SDS011;11223;49.968;9.062;2023-03-31T03:29:36;3.00;;;1.80;;
22113;SDS011;11223;49.968;9.062;2023-03-31T03:32:02;2.40;;;1.43;;
22113;SDS011;11223;49.968;9.062;2023-03-31T03:34:27;2.70;;;1.60;;
22113;SDS011;11223;49.968;9.062;2023-03-31T03:36:53;2.90;;;1.50;;
22113;SDS011;11223;49.968;9.062;2023-03-31T03:39:18;3.03;;;1.80;;
22113;SDS011;11223;49.968;9.062;2023-03-31T03:41:44;8.33;;;1.70;;
22113;SDS011;11223;49.968;9.062;2023-03-31T03:44:10;2.53;;;1.90;;
22113;SDS011;11223;49.968;9.062;2023-03-31T03:46:36;3.57;;;2.07;;
22113;SDS011;11223;49.968;9.062;2023-03-31T03:49:02;4.60;;;1.70;;
22113;SDS011;11223;49.968;9.062;2023-03-31T03:51:27;1.93;;;1.70;;
22113;SDS011;11223;49.968;9.062;2023-03-31T03:53:53;2.27;;;1.47;;
22113;SDS011;11223;49.968;9.062;2023-03-31T03:56:18;3.80;;;1.70;;
22113;SDS011;11223;49.968;9.062;2023-03-31T03:58:46;2.80;;;1.42;;
22113;SDS011;11223;49.968;9.062;2023-03-31T04:01:11;3.10;;;2.00;;
22113;SDS011;11223;49.968;9.062;2023-03-31T04:03:38;2.25;;;1.55;;
22113;SDS011;11223;49.968;9.062;2023-03-31T04:06:03;2.53;;;1.67;;
22113;SDS011;11223;49.968;9.062;2023-03-31T04:08:29;2.23;;;1.50;;
22113;SDS011;11223;49.968;9.062;2023-03-31T04:10:55;2.07;;;1.60;;
22113;SDS011;11223;49.968;9.062;2023-03-31T04:13:21;4.13;;;1.63;;
22113;SDS011;11223;49.968;9.062;2023-03-31T04:15:46;2.23;;;1.40;;
22113;SDS011;11223;49.968;9.062;2023-03-31T04:18:12;3.70;;;1.93;;
22113;SDS011;11223;49.968;9.062;2023-03-31T04:20:50;7.70;;;2.35;;
22113;SDS011;11223;49.968;9.062;2023-03-31T04:23:34;3.67;;;1.60;;
22113;SDS011;11223;49.968;9.062;2023-03-31T04:26:09;6.38;;;1.98;;
22113;SDS011;11223;49.968;9.062;2023-03-31T04:28:35;3.47;;;1.80;;
22113;SDS011;11223;49.968;9.062;2023-03-31T04:31:02;1.58;;;1.25;;
22113;SDS011;11223;49.968;9.062;2023-03-31T04:33:30;2.83;;;1.92;;
22113;SDS011;11223;49.968;9.062;2023-03-31T04:35:58;3.88;;;2.10;;
22113;SDS011;11223;49.968;9.062;2023-03-31T04:38:30;1.95;;;1.40;;
22113;SDS011;11223;49.968;9.062;2023-03-31T04:40:57;2.35;;;1.30;;
22113;SDS011;11223;49.968;9.062;2023-03-31T04:43:23;4.53;;;1.75;;
22113;SDS011;11223;49.968;9.062;2023-03-31T04:45:49;5.50;;;2.20;;
22113;SDS011;11223;49.968;9.062;2023-03-31T04:48:15;3.20;;;1.77;;
22113;SDS011;11223;49.968;9.062;2023-03-31T04:50:40;2.87;;;1.90;;
22113;SDS011;11223;49.968;9.062;2023-03-31T04:53:07;3.90;;;1.80;;
22113;SDS011;11223;49.968;9.062;2023-03-31T04:55:32;3.50;;;2.30;;
22113;SDS011;11223;49.968;9.062;2023-03-31T04:57:59;3.17;;;1.95;;
22113;SDS011;11223;49.968;9.062;2023-03-31T05:00:25;4.70;;;2.30;;
22113;SDS011;11223;49.968;9.062;2023-03-31T05:02:50;2.53;;;1.73;;
22113;SDS011;11223;49.968;9.062;2023-03-31T05:05:16;4.82;;;2.30;;
22113;SDS011;11223;49.968;9.062;2023-03-31T05:07:42;3.73;;;3.00;;
22113;SDS011;11223;49.968;9.062;2023-03-31T05:10:08;4.27;;;2.00;;
22113;SDS011;11223;49.968;9.062;2023-03-31T05:12:35;2.55;;;2.15;;
22113;SDS011;11223;49.968;9.062;2023-03-31T05:15:01;5.65;;;2.83;;
22113;SDS011;11223;49.968;9.062;2023-03-31T05:17:31;7.53;;;2.72;;
22113;SDS011;11223;49.968;9.062;2023-03-31T05:19:58;4.50;;;2.45;;
22113;SDS011;11223;49.968;9.062;2023-03-31T05:22:24;3.88;;;2.10;;
22113;SDS011;11223;49.968;9.062;2023-03-31T05:24:50;5.65;;;2.72;;
22113;SDS011;11223;49.968;9.062;2023-03-31T05:27:15;5.70;;;2.47;;
22113;SDS011;11223;49.968;9.062;2023-03-31T05:29:41;5.40;;;2.23;;
22113;SDS011;11223;49.968;9.062;2023-03-31T05:32:07;8.70;;;2.28;;
22113;SDS011;11223;49.968;9.062;2023-03-31T05:34:33;4.73;;;2.10;;
22113;SDS011;11223;49.968;9.062;2023-03-31T05:36:59;6.67;;;2.80;;
22113;SDS011;11223;49.968;9.062;2023-03-31T05:39:24;2.90;;;2.60;;
22113;SDS011;11223;49.968;9.062;2023-03-31T05:41:50;6.22;;;3.22;;
22113;SDS011;11223;49.968;9.062;2023-03-31T05:44:16;10.47;;;2.60;;
22113;SDS011;11223;49.968;9.062;2023-03-31T05:46:44;4.07;;;3.03;;
22113;SDS011;11223;49.968;9.062;2023-03-31T05:49:10;5.30;;;3.27;;
22113;SDS011;11223;49.968;9.062;2023-03-31T05:51:36;5.93;;;3.97;;
22113;SDS011;11223;49.968;9.062;2023-03-31T05:54:01;7.60;;;4.60;;
22113;SDS011;11223;49.968;9.062;2023-03-31T05:56:27;5.60;;;4.90;;
22113;SDS011;11223;49.968;9.062;2023-03-31T05:58:53;7.93;;;4.30;;
22113;SDS011;11223;49.968;9.062;2023-03-31T06:01:18;8.03;;;4.20;;
22113;SDS011;11223;49.968;9.062;2023-03-31T06:03:46;4.28;;;3.80;;
22113;SDS011;11223;49.968;9.062;2023-03-31T06:06:12;4.10;;;3.27;;
22113;SDS011;11223;49.968;9.062;2023-03-31T06:08:39;4.22;;;2.88;;
22113;SDS011;11223;49.968;9.062;2023-03-31T06:11:06;5.90;;;4.38;;
22113;SDS011;11223;49.968;9.062;2023-03-31T06:13:33;4.25;;;3.10;;
22113;SDS011;11223;49.968;9.062;2023-03-31T06:16:00;3.35;;;2.50;;
22113;SDS011;11223;49.968;9.062;2023-03-31T06:18:26;4.37;;;3.10;;
22113;SDS011;11223;49.968;9.062;2023-03-31T06:20:53;4.13;;;3.45;;
22113;SDS011;11223;49.968;9.062;2023-03-31T06:23:20;5.40;;;3.13;;
22113;SDS011;11223;49.968;9.062;2023-03-31T06:25:46;3.22;;;2.55;;
22113;SDS011;11223;49.968;9.062;2023-03-31T06:28:12;3.40;;;3.00;;
22113;SDS011;11223;49.968;9.062;2023-03-31T06:30:37;4.07;;;3.00;;
22113;SDS011;11223;49.968;9.062;2023-03-31T06:33:03;5.50;;;3.80;;
22113;SDS011;11223;49.968;9.062;2023-03-31T06:35:29;4.57;;;3.30;;
22113;SDS011;11223;49.968;9.062;2023-03-31T06:37:54;7.97;;;3.60;;
22113;SDS011;11223;49.968;9.062;2023-03-31T06:40:20;6.00;;;3.30;;
22113;SDS011;11223;49.968;9.062;2023-03-31T06:42:46;3.33;;;2.77;;
22113;SDS011;11223;49.968;9.062;2023-03-31T06:45:11;5.23;;;2.87;;
22113;SDS011;11223;49.968;9.062;2023-03-31T06:47:37;4.93;;;2.57;;
22113;SDS011;11223;49.968;9.062;2023-03-31T06:50:03;5.30;;;3.20;;
22113;SDS011;11223;49.968;9.062;2023-03-31T06:52:30;4.80;;;3.00;;
22113;SDS011;11223;49.968;9.062;2023-03-31T06:54:56;4.75;;;2.85;;
22113;SDS011;11223;49.968;9.062;2023-03-31T06:57:21;3.83;;;2.37;;
22113;SDS011;11223;49.968;9.062;2023-03-31T06:59:47;5.37;;;3.13;;
22113;SDS011;11223;49.968;9.062;2023-03-31T07:02:12;3.33;;;2.83;;
22113;SDS011;11223;49.968;9.062;2023-03-31T07:04:38;5.00;;;3.23;;
22113;SDS011;11223;49.968;9.062;2023-03-31T07:07:04;2.67;;;2.47;;
22113;SDS011;11223;49.968;9.062;2023-03-31T07:09:29;3.47;;;2.93;;
22113;SDS011;11223;49.968;9.062;2023-03-31T07:11:55;4.37;;;2.93;;
22113;SDS011;11223;49.968;9.062;2023-03-31T07:14:20;4.20;;;2.80;;
22113;SDS011;11223;49.968;9.062;2023-03-31T07:16:46;5.90;;;3.30;;
22113;SDS011;11223;49.968;9.062;2023-03-31T07:19:12;4.10;;;2.97;;
22113;SDS011;11223;49.968;9.062;2023-03-31T07:21:39;3.40;;;3.10;;
22113;SDS011;11223;49.968;9.062;2023-03-31T07:24:05;5.63;;;3.07;;
22113;SDS011;11223;49.968;9.062;2023-03-31T07:26:30;4.30;;;2.80;;
22113;SDS011;11223;49.968;9.062;2023-03-31T07:28:56;3.23;;;2.87;;
22113;SDS011;11223;49.968;9.062;2023-03-31T07:31:22;4.95;;;3.45;;
22113;SDS011;11223;49.968;9.062;2023-03-31T07:33:48;4.53;;;3.40;;
22113;SDS011;11223;49.968;9.062;2023-03-31T07:36:14;3.90;;;2.90;;
22113;SDS011;11223;49.968;9.062;2023-03-31T07:38:41;3.92;;;3.15;;
22113;SDS011;11223;49.968;9.062;2023-03-31T07:41:18;3.55;;;3.20;;
22113;SDS011;11223;49.968;9.062;2023-03-31T07:43:45;4.60;;;3.38;;
22113;SDS011;11223;49.968;9.062;2023-03-31T07:46:21;9.07;;;3.60;;
22113;SDS011;11223;49.968;9.062;2023-03-31T07:48:51;4.03;;;3.63;;
22113;SDS011;11223;49.968;9.062;2023-03-31T07:51:19;5.82;;;4.28;;
22113;SDS011;11223;49.968;9.062;2023-03-31T07:53:46;4.28;;;3.35;;
22113;SDS011;11223;49.968;9.062;2023-03-31T07:56:17;6.00;;;5.40;;
22113;SDS011;11223;49.968;9.062;2023-03-31T07:58:45;8.45;;;7.13;;
22113;SDS011;11223;49.968;9.062;2023-03-31T08:01:15;5.65;;;5.25;;
22113;SDS011;11223;49.968;9.062;2023-03-31T08:03:42;5.70;;;3.63;;
22113;SDS011;11223;49.968;9.062;2023-03-31T08:06:08;6.55;;;4.32;;
22113;SDS011;11223;49.968;9.062;2023-03-31T08:08:33;4.27;;;3.87;;
22113;SDS011;11223;49.968;9.062;2023-03-31T08:11:02;7.63;;;3.60;;
22113;SDS011;11223;49.968;9.062;2023-03-31T08:13:28;5.70;;;4.40;;
22113;SDS011;11223;49.968;9.062;2023-03-31T08:15:54;4.00;;;3.60;;
22113;SDS011;11223;49.968;9.062;2023-03-31T08:18:20;7.47;;;5.17;;
22113;SDS011;11223;49.968;9.062;2023-03-31T08:20:46;5.50;;;5.03;;
22113;SDS011;11223;49.968;9.062;2023-03-31T08:23:13;5.28;;;4.00;;
22113;SDS011;11223;49.968;9.062;2023-03-31T08:25:40;5.68;;;4.57;;
22113;SDS011;11223;49.968;9.062;2023-03-31T08:28:05;4.57;;;3.93;;
22113;SDS011;11223;49.968;9.062;2023-03-31T08:30:35;5.22;;;3.70;;
22113;SDS011;11223;49.968;9.062;2023-03-31T08:33:01;4.00;;;3.55;;
22113;SDS011;11223;49.968;9.062;2023-03-31T08:35:27;3.63;;;3.33;;
22113;SDS011;11223;49.968;9.062;2023-03-31T08:37:53;4.83;;;3.50;;
22113;SDS011;11223;49.968;9.062;2023-03-31T08:40:20;5.77;;;3.40;;
22113;SDS011;11223;49.968;9.062;2023-03-31T08:42:49;3.97;;;3.03;;
22113;SDS011;11223;49.968;9.062;2023-03-31T08:45:31;3.55;;;3.10;;
22113;SDS011;11223;49.968;9.062;2023-03-31T08:48:04;3.13;;;2.83;;
22113;SDS011;11223;49.968;9.062;2023-03-31T08:50:54;9.20;;;3.47;;
22113;SDS011;11223;49.968;9.062;2023-03-31T08:53:31;3.35;;;2.83;;
22113;SDS011;11223;49.968;9.062;2023-03-31T08:56:05;2.70;;;2.25;;
22113;SDS011;11223;49.968;9.062;2023-03-31T08:58:40;4.05;;;2.50;;
22113;SDS011;11223;49.968;9.062;2023-03-31T09:06:55;2.50;;;1.88;;
22113;SDS011;11223;49.968;9.062;2023-03-31T09:12:33;2.20;;;1.80;;
22113;SDS011;11223;49.968;9.062;2023-03-31T09:15:28;2.65;;;1.50;;
22113;SDS011;11223;49.968;9.062;2023-03-31T09:18:51;2.10;;;1.90;;
22113;SDS011;11223;49.968;9.062;2023-03-31T09:21:06;1.90;;;1.65;;
22113;SDS011;11223;49.968;9.062;2023-03-31T09:26:32;1.80;;;1.70;;
22113;SDS011;11223;49.968;9.062;2023-03-31T09:29:12;1.85;;;1.73;;
22113;SDS011;11223;49.968;9.062;2023-03-31T09:31:45;2.20;;;1.83;;
22113;SDS011;11223;49.968;9.062;2023-03-31T09:34:32;2.50;;;2.30;;
22113;SDS011;11223;49.968;9.062;2023-03-31T09:36:58;3.40;;;1.90;;
22113;SDS011;11223;49.968;9.062;2023-03-31T09:39:24;1.60;;;1.50;;
22113;SDS011;11223;49.968;9.062;2023-03-31T09:41:50;2.00;;;1.40;;
22113;SDS011;11223;49.968;9.062;2023-03-31T09:47:06;2.67;;;1.70;;
22113;SDS011;11223;49.968;9.062;2023-03-31T09:49:40;4.65;;;2.45;;
22113;SDS011;11223;49.968;9.062;2023-03-31T09:52:14;2.35;;;1.85;;
22113;SDS011;11223;49.968;9.062;2023-03-31T09:54:53;2.13;;;1.92;;
22113;SDS011;11223;49.968;9.062;2023-03-31T09:57:23;2.55;;;2.25;;
22113;SDS011;11223;49.968;9.062;2023-03-31T10:02:38;2.92;;;1.85;;
22113;SDS011;11223;49.968;9.062;2023-03-31T10:13:25;2.65;;;1.83;;
22113;SDS011;11223;49.968;9.062;2023-03-31T10:15:53;4.38;;;2.25;;
22113;SDS011;11223;49.968;9.062;2023-03-31T10:18:36;3.03;;;2.65;;
22113;SDS011;11223;49.968;9.062;2023-03-31T10:21:04;3.15;;;2.17;;
22113;SDS011;11223;49.968;9.062;2023-03-31T10:23:40;1.48;;;1.38;;
22113;SDS011;11223;49.968;9.062;2023-03-31T10:26:11;3.75;;;2.50;;
22113;SDS011;11223;49.968;9.062;2023-03-31T10:28:41;1.88;;;1.65;;
22113;SDS011;11223;49.968;9.062;2023-03-31T10:31:07;1.73;;;1.60;;
22113;SDS011;11223;49.968;9.062;2023-03-31T10:33:32;1.40;;;1.07;;
22113;SDS011;11223;49.968;9.062;2023-03-31T10:36:36;3.75;;;1.52;;
22113;SDS011;11223;49.968;9.062;2023-03-31T10:38:55;2.38;;;1.58;;
22113;SDS011;11223;49.968;9.062;2023-03-31T10:41:23;4.15;;;1.55;;
22113;SDS011;11223;49.968;9.062;2023-03-31T10:43:54;2.40;;;1.38;;
22113;SDS011;11223;49.968;9.062;2023-03-31T10:49:42;1.58;;;1.30;;
22113;SDS011;11223;49.968;9.062;2023-03-31T10:52:08;2.60;;;1.48;;
22113;SDS011;11223;49.968;9.062;2023-03-31T10:55:00;0.93;;;0.70;;
22113;SDS011;11223;49.968;9.062;2023-03-31T10:57:33;1.90;;;0.80;;
22113;SDS011;11223;49.968;9.062;2023-03-31T11:00:36;2.42;;;1.02;;
22113;SDS011;11223;49.968;9.062;2023-03-31T11:06:21;1.88;;;1.50;;
22113;SDS011;11223;49.968;9.062;2023-03-31T11:11:57;1.92;;;1.38;;
22113;SDS011;11223;49.968;9.062;2023-03-31T11:20:20;2.45;;;1.48;;
22113;SDS011;11223;49.968;9.062;2023-03-31T11:25:46;4.45;;;1.70;;
22113;SDS011;11223;49.968;9.062;2023-03-31T11:36:43;2.42;;;1.50;;
22113;SDS011;11223;49.968;9.062;2023-03-31T11:39:49;2.50;;;1.45;;
22113;SDS011;11223;49.968;9.062;2023-03-31T11:42:26;4.32;;;1.58;;
22113;SDS011;11223;49.968;9.062;2023-03-31T11:44:59;2.17;;;0.95;;
22113;SDS011;11223;49.968;9.062;2023-03-31T11:47:37;3.45;;;1.30;;
22113;SDS011;11223;49.968;9.062;2023-03-31T11:50:09;3.58;;;1.50;;
22113;SDS011;11223;49.968;9.062;2023-03-31T11:52:59;4.53;;;1.50;;
22113;SDS011;11223;49.968;9.062;2023-03-31T11:55:27;2.20;;;1.25;;
22113;SDS011;11223;49.968;9.062;2023-03-31T12:00:33;3.55;;;1.58;;
22113;SDS011;11223;49.968;9.062;2023-03-31T12:03:18;1.85;;;1.35;;
22113;SDS011;11223;49.968;9.062;2023-03-31T12:05:49;2.70;;;1.42;;
22113;SDS011;11223;49.968;9.062;2023-03-31T12:11:09;2.42;;;1.30;;
22113;SDS011;11223;49.968;9.062;2023-03-31T12:16:25;4.05;;;1.85;;
22113;SDS011;11223;49.968;9.062;2023-03-31T12:19:05;2.67;;;1.15;;
22113;SDS011;11223;49.968;9.062;2023-03-31T12:21:43;2.83;;;1.40;;
22113;SDS011;11223;49.968;9.062;2023-03-31T12:24:14;4.88;;;1.50;;
22113;SDS011;11223;49.968;9.062;2023-03-31T12:26:45;3.27;;;1.80;;
22113;SDS011;11223;49.968;9.062;2023-03-31T12:29:33;1.80;;;1.10;;
22113;SDS011;11223;49.968;9.062;2023-03-31T12:32:03;2.55;;;1.30;;
22113;SDS011;11223;49.968;9.062;2023-03-31T12:34:40;2.67;;;1.30;;
22113;SDS011;11223;49.968;9.062;2023-03-31T12:40:25;3.38;;;1.20;;
22113;SDS011;11223;49.968;9.062;2023-03-31T12:42:58;2.15;;;1.13;;
22113;SDS011;11223;49.968;9.062;2023-03-31T12:49:05;3.42;;;1.30;;
22113;SDS011;11223;49.968;9.062;2023-03-31T12:51:45;4.50;;;1.58;;
22113;SDS011;11223;49.968;9.062;2023-03-31T12:54:28;2.10;;;1.00;;
22113;SDS011;11223;49.968;9.062;2023-03-31T12:59:36;2.77;;;1.23;;
22113;SDS011;11223;49.968;9.062;2023-03-31T13:04:39;2.50;;;1.10;;
22113;SDS011;11223;49.968;9.062;2023-03-31T13:07:50;3.58;;;1.15;;
22113;SDS011;11223;49.968;9.062;2023-03-31T13:09:54;1.83;;;1.23;;
22113;SDS011;11223;49.968;9.062;2023-03-31T13:12:22;3.42;;;1.00;;
22113;SDS011;11223;49.968;9.062;2023-03-31T13:14:51;5.63;;;1.30;;
22113;SDS011;11223;49.968;9.062;2023-03-31T13:17:32;2.45;;;1.40;;
22113;SDS011;11223;49.968;9.062;2023-03-31T13:20:17;3.47;;;1.70;;
22113;SDS011;11223;49.968;9.062;2023-03-31T13:22:48;2.30;;;1.13;;
22113;SDS011;11223;49.968;9.062;2023-03-31T13:25:56;2.00;;;1.60;;
22113;SDS011;11223;49.968;9.062;2023-03-31T13:30:51;3.47;;;1.70;;
22113;SDS011;11223;49.968;9.062;2023-03-31T13:33:32;3.45;;;1.40;;
22113;SDS011;11223;49.968;9.062;2023-03-31T13:41:42;8.27;;;2.00;;
22113;SDS011;11223;49.968;9.062;2023-03-31T13:47:30;4.82;;;2.13;;
22113;SDS011;11223;49.968;9.062;2023-03-31T13:58:37;3.00;;;1.50;;
22113;SDS011;11223;49.968;9.062;2023-03-31T14:07:28;5.22;;;1.50;;
22113;SDS011;11223;49.968;9.062;2023-03-31T14:09:55;2.45;;;0.80;;
22113;SDS011;11223;49.968;9.062;2023-03-31T14:14:59;2.05;;;0.93;;
22113;SDS011;11223;49.968;9.062;2023-03-31T14:17:26;3.25;;;1.42;;
22113;SDS011;11223;49.968;9.062;2023-03-31T14:28:23;1.90;;;0.85;;
22113;SDS011;11223;49.968;9.062;2023-03-31T14:34:19;1.17;;;0.60;;
22113;SDS011;11223;49.968;9.062;2023-03-31T14:37:08;1.10;;;0.65;;
22113;SDS011;11223;49.968;9.062;2023-03-31T14:39:39;1.02;;;0.70;;
22113;SDS011;11223;49.968;9.062;2023-03-31T14:42:18;2.67;;;0.90;;
22113;SDS011;11223;49.968;9.062;2023-03-31T14:44:47;1.52;;;0.90;;
22113;SDS011;11223;49.968;9.062;2023-03-31T14:47:20;1.25;;;0.80;;
22113;SDS011;11223;49.968;9.062;2023-03-31T14:50:11;1.40;;;0.75;;
22113;SDS011;11223;49.968;9.062;2023-03-31T14:52:37;3.90;;;1.20;;
22113;SDS011;11223;49.968;9.062;2023-03-31T14:55:02;3.53;;;0.90;;
22113;SDS011;11223;49.968;9.062;2023-03-31T14:57:36;2.10;;;0.80;;
22113;SDS011;11223;49.968;9.062;2023-03-31T15:00:04;2.08;;;0.70;;
22113;SDS011;11223;49.968;9.062;2023-03-31T15:02:33;1.27;;;0.77;;
22113;SDS011;11223;49.968;9.062;2023-03-31T15:05:04;3.47;;;0.85;;
22113;SDS011;11223;49.968;9.062;2023-03-31T15:07:33;2.75;;;0.60;;
22113;SDS011;11223;49.968;9.062;2023-03-31T15:10:00;2.88;;;0.98;;
22113;SDS011;11223;49.968;9.062;2023-03-31T15:12:27;1.40;;;1.15;;
22113;SDS011;11223;49.968;9.062;2023-03-31T15:14:54;1.80;;;0.98;;
22113;SDS011;11223;49.968;9.062;2023-03-31T15:17:31;1.25;;;0.70;;
22113;SDS011;11223;49.968;9.062;2023-03-31T15:20:20;1.13;;;1.00;;
22113;SDS011;11223;49.968;9.062;2023-03-31T15:22:57;2.05;;;0.85;;
22113;SDS011;11223;49.968;9.062;2023-03-31T15:25:24;1.27;;;1.00;;
22113;SDS011;11223;49.968;9.062;2023-03-31T15:28:01;4.68;;;0.90;;
22113;SDS011;11223;49.968;9.062;2023-03-31T15:30:30;0.93;;;0.70;;
22113;SDS011;11223;49.968;9.062;2023-03-31T15:32:56;1.00;;;0.57;;
22113;SDS011;11223;49.968;9.062;2023-03-31T15:35:24;0.88;;;0.80;;
22113;SDS011;11223;49.968;9.062;2023-03-31T15:37:56;1.35;;;0.63;;
22113;SDS011;11223;49.968;9.062;2023-03-31T15:43:07;2.38;;;1.13;;
22113;SDS011;11223;49.968;9.062;2023-03-31T15:45:46;3.45;;;1.55;;
22113;SDS011;11223;49.968;9.062;2023-03-31T15:48:16;1.55;;;0.70;;
22113;SDS011;11223;49.968;9.062;2023-03-31T15:50:47;2.50;;;1.20;;
22113;SDS011;11223;49.968;9.062;2023-03-31T15:56:23;2.13;;;1.20;;
22113;SDS011;11223;49.968;9.062;2023-03-31T15:58:57;3.67;;;1.23;;
22113;SDS011;11223;49.968;9.062;2023-03-31T16:01:43;4.43;;;1.00;;
22113;SDS011;11223;49.968;9.062;2023-03-31T16:04:11;2.25;;;1.50;;
22113;SDS011;11223;49.968;9.062;2023-03-31T16:06:51;1.40;;;0.90;;
22113;SDS011;11223;49.968;9.062;2023-03-31T16:09:26;2.95;;;1.70;;
22113;SDS011;11223;49.968;9.062;2023-03-31T16:12:03;2.33;;;0.82;;
22113;SDS011;11223;49.968;9.062;2023-03-31T16:14:35;2.35;;;1.60;;
22113;SDS011;11223;49.968;9.062;2023-03-31T16:17:09;3.20;;;1.38;;
22113;SDS011;11223;49.968;9.062;2023-03-31T16:19:43;2.35;;;1.02;;
22113;SDS011;11223;49.968;9.062;2023-03-31T16:22:12;1.20;;;0.98;;
22113;SDS011;11223;49.968;9.062;2023-03-31T16:24:43;6.90;;;1.17;;
22113;SDS011;11223;49.968;9.062;2023-03-31T16:27:09;1.77;;;0.90;;
22113;SDS011;11223;49.968;9.062;2023-03-31T16:29:35;0.83;;;0.60;;
22113;SDS011;11223;49.968;9.062;2023-03-31T16:32:12;4.43;;;1.10;;
22113;SDS011;11223;49.968;9.062;2023-03-31T16:34:55;3.38;;;1.33;;
22113;SDS011;11223;49.968;9.062;2023-03-31T16:37:23;1.08;;;0.95;;
22113;SDS011;11223;49.968;9.062;2023-03-31T16:39:49;1.67;;;0.98;;
22113;SDS011;11223;49.968;9.062;2023-03-31T16:42:15;2.80;;;0.90;;
22113;SDS011;11223;49.968;9.062;2023-03-31T16:44:41;1.38;;;0.85;;
22113;SDS011;11223;49.968;9.062;2023-03-31T16:47:08;1.60;;;0.95;;
22113;SDS011;11223;49.968;9.062;2023-03-31T16:49:33;3.60;;;1.07;;
22113;SDS011;11223;49.968;9.062;2023-03-31T16:51:59;1.63;;;1.00;;
22113;SDS011;11223;49.968;9.062;2023-03-31T16:54:25;2.17;;;0.95;;
22113;SDS011;11223;49.968;9.062;2023-03-31T16:56:51;1.00;;;0.80;;
22113;SDS011;11223;49.968;9.062;2023-03-31T16:59:16;2.20;;;1.00;;
22113;SDS011;11223;49.968;9.062;2023-03-31T17:01:42;2.53;;;0.90;;
22113;SDS011;11223;49.968;9.062;2023-03-31T17:04:08;1.20;;;0.87;;
22113;SDS011;11223;49.968;9.062;2023-03-31T17:06:33;4.30;;;0.90;;
22113;SDS011;11223;49.968;9.062;2023-03-31T17:08:59;1.07;;;0.90;;
22113;SDS011;11223;49.968;9.062;2023-03-31T17:11:25;1.63;;;0.95;;
22113;SDS011;11223;49.968;9.062;2023-03-31T17:13:51;1.33;;;0.80;;
22113;SDS011;11223;49.968;9.062;2023-03-31T17:16:18;3.42;;;1.10;;
22113;SDS011;11223;49.968;9.062;2023-03-31T17:18:44;2.88;;;1.17;;
22113;SDS011;11223;49.968;9.062;2023-03-31T17:21:11;3.50;;;1.40;;
22113;SDS011;11223;49.968;9.062;2023-03-31T17:23:38;2.05;;;1.10;;
22113;SDS011;11223;49.968;9.062;2023-03-31T17:26:05;2.17;;;1.10;;
22113;SDS011;11223;49.968;9.062;2023-03-31T17:28:33;2.60;;;1.90;;
22113;SDS011;11223;49.968;9.062;2023-03-31T17:30:59;3.50;;;1.52;;
22113;SDS011;11223;49.968;9.062;2023-03-31T17:33:25;2.90;;;1.20;;
22113;SDS011;11223;49.968;9.062;2023-03-31T17:35:55;4.70;;;1.77;;
22113;SDS011;11223;49.968;9.062;2023-03-31T17:38:22;4.18;;;1.70;;
22113;SDS011;11223;49.968;9.062;2023-03-31T17:40:49;6.10;;;1.35;;
22113;SDS011;11223;49.968;9.062;2023-03-31T17:43:14;2.43;;;1.17;;
22113;SDS011;11223;49.968;9.062;2023-03-31T17:45:40;2.43;;;1.40;;
22113;SDS011;11223;49.968;9.062;2023-03-31T17:48:05;2.20;;;1.60;;